Time;durP1;ratioP1;P1;durP2;ratioP2;P2;SDS_P1;SDS_P2;PMS_P1;PMS_P2;Temp;Humidity;BMP_temperature;BMP_pressure;BME280_temperature;BME280_humidity;BME280_pressure;Samples;Min_cycle;Max_cycle;Signal;HPM_P1;HPM_P2
2021/07/29 00:01:39;;;;;;;12.13;9.02;;;;;;;;;;6326666;22;20375;-92
2021/07/29 00:04:06;;;;;;;11.88;8.73;;;;;;;;;;6326304;22;20363;-92
2021/07/29 00:06:32;;;;;;;10.38;8.70;;;;;;;;;;6326602;22;20680;-92
2021/07/29 00:08:59;;;;;;;12.20;8.45;;;;;;;;;;6326661;22;20362;-92
2021/07/29 00:11:29;;;;;;;12.55;8.88;;;;;;;;;;6326716;22;20371;-94
2021/07/29 00:13:58;;;;;;;10.10;7.80;;;;;;;;;;6326913;22;20370;-94
2021/07/29 00:16:27;;;;;;;9.82;8.10;;;;;;;;;;6326219;22;20636;-93
2021/07/29 00:19:07;;;;;;;12.20;8.50;;;;;;;;;;6326612;22;20366;-94
2021/07/29 00:21:36;;;;;;;9.20;7.88;;;;;;;;;;6326534;22;20375;-94
2021/07/29 00:24:03;;;;;;;11.00;7.97;;;;;;;;;;6327196;22;20839;-93
2021/07/29 00:26:32;;;;;;;10.63;7.45;;;;;;;;;;6326523;22;20371;-95
2021/07/29 00:29:00;;;;;;;10.63;8.07;;;;;;;;;;6326867;22;20874;-93
2021/07/29 00:31:30;;;;;;;10.80;7.40;;;;;;;;;;6326685;22;20367;-93
2021/07/29 00:33:57;;;;;;;9.38;7.32;;;;;;;;;;6327101;22;20351;-93
2021/07/29 00:36:24;;;;;;;10.18;7.32;;;;;;;;;;6326808;22;20409;-94
2021/07/29 00:38:52;;;;;;;9.32;7.38;;;;;;;;;;6326602;22;20367;-94
2021/07/29 00:41:18;;;;;;;8.07;6.78;;;;;;;;;;6298968;22;20370;-94
2021/07/29 00:43:47;;;;;;;11.30;7.30;;;;;;;;;;6326649;22;20446;-93
2021/07/29 00:46:15;;;;;;;10.27;7.03;;;;;;;;;;6326874;22;20695;-92
2021/07/29 00:48:42;;;;;;;8.48;7.00;;;;;;;;;;6326351;22;20852;-95
2021/07/29 00:51:10;;;;;;;10.57;7.88;;;;;;;;;;6326627;22;20359;-93
2021/07/29 00:53:37;;;;;;;11.95;7.35;;;;;;;;;;6328775;22;20371;-94
2021/07/29 00:56:05;;;;;;;7.97;7.13;;;;;;;;;;6328385;22;20366;-95
2021/07/29 00:58:32;;;;;;;11.23;7.45;;;;;;;;;;6328505;22;20355;-94
2021/07/29 01:01:01;;;;;;;9.07;7.55;;;;;;;;;;6328156;22;20746;-95
2021/07/29 01:03:28;;;;;;;11.65;7.32;;;;;;;;;;6329044;22;20363;-94
2021/07/29 01:05:55;;;;;;;11.13;8.40;;;;;;;;;;6327795;22;20390;-95
2021/07/29 01:08:22;;;;;;;10.48;9.27;;;;;;;;;;6328148;22;20847;-94
2021/07/29 01:10:48;;;;;;;12.77;10.07;;;;;;;;;;6329707;22;20382;-95
2021/07/29 01:13:15;;;;;;;13.82;11.02;;;;;;;;;;6328366;22;20915;-95
2021/07/29 01:15:42;;;;;;;14.55;11.30;;;;;;;;;;6329159;22;20363;-93
2021/07/29 01:18:11;;;;;;;16.65;11.50;;;;;;;;;;6328482;22;20367;-95
2021/07/29 01:20:39;;;;;;;16.05;12.02;;;;;;;;;;6328499;22;20375;-93
2021/07/29 01:23:06;;;;;;;14.53;11.33;;;;;;;;;;6327988;22;20377;-94
2021/07/29 01:25:33;;;;;;;13.60;11.83;;;;;;;;;;6328755;22;20441;-95
2021/07/29 01:28:00;;;;;;;16.33;12.43;;;;;;;;;;6329040;22;20387;-94
2021/07/29 01:30:28;;;;;;;17.33;12.30;;;;;;;;;;6328446;22;20430;-92
2021/07/29 01:32:55;;;;;;;14.18;11.98;;;;;;;;;;6328613;22;20371;-94
2021/07/29 01:35:22;;;;;;;16.63;12.95;;;;;;;;;;6327891;22;20363;-92
2021/07/29 01:37:50;;;;;;;15.60;13.80;;;;;;;;;;6325228;22;20397;-94
2021/07/29 01:40:17;;;;;;;15.85;13.50;;;;;;;;;;6328201;22;20811;-95
2021/07/29 01:42:44;;;;;;;17.45;14.07;;;;;;;;;;6327851;22;20382;-92
2021/07/29 01:45:12;;;;;;;16.27;14.02;;;;;;;;;;6327416;22;20369;-94
2021/07/29 01:47:39;;;;;;;15.65;13.18;;;;;;;;;;6328847;22;20366;-94
2021/07/29 01:50:08;;;;;;;18.00;13.43;;;;;;;;;;6328477;22;20367;-95
2021/07/29 01:52:38;;;;;;;16.33;12.60;;;;;;;;;;6328168;22;20362;-94
2021/07/29 01:55:09;;;;;;;14.68;12.95;;;;;;;;;;6328377;22;20367;-94
2021/07/29 01:57:37;;;;;;;15.70;12.70;;;;;;;;;;6328837;22;20398;-95
2021/07/29 02:00:05;;;;;;;15.05;12.13;;;;;;;;;;6328243;22;20371;-94
2021/07/29 02:02:33;;;;;;;14.33;12.67;;;;;;;;;;6328252;22;20371;-94
2021/07/29 02:05:00;;;;;;;15.40;12.15;;;;;;;;;;6327748;22;20816;-94
2021/07/29 02:07:26;;;;;;;16.85;12.88;;;;;;;;;;6328476;22;20734;-95
2021/07/29 02:09:53;;;;;;;16.77;12.30;;;;;;;;;;6329589;22;20638;-94
2021/07/29 02:12:22;;;;;;;16.92;12.82;;;;;;;;;;6329104;22;20371;-96
2021/07/29 02:14:49;;;;;;;14.13;12.63;;;;;;;;;;6329261;22;20371;-95
2021/07/29 02:17:20;;;;;;;14.85;12.30;;;;;;;;;;6329415;22;20374;-95
2021/07/29 02:19:47;;;;;;;20.60;12.97;;;;;;;;;;6329604;22;20370;-95
2021/07/29 02:22:15;;;;;;;15.90;12.93;;;;;;;;;;6328915;22;20379;-94
2021/07/29 02:24:41;;;;;;;15.30;13.00;;;;;;;;;;6329596;22;20363;-93
2021/07/29 02:27:08;;;;;;;16.05;12.63;;;;;;;;;;6328787;22;20355;-94
2021/07/29 02:29:38;;;;;;;14.15;12.23;;;;;;;;;;6328516;22;20359;-95
2021/07/29 02:32:05;;;;;;;15.05;12.02;;;;;;;;;;6328611;22;20455;-93
2021/07/29 02:34:32;;;;;;;16.67;12.07;;;;;;;;;;6329023;22;20352;-95
2021/07/29 02:36:59;;;;;;;13.13;11.70;;;;;;;;;;6328375;22;20893;-95
2021/07/29 02:39:26;;;;;;;14.82;12.18;;;;;;;;;;6329123;22;20537;-95
2021/07/29 02:41:53;;;;;;;13.85;11.95;;;;;;;;;;6328792;22;20371;-95
2021/07/29 02:44:19;;;;;;;15.13;11.98;;;;;;;;;;6329051;22;20370;-93
2021/07/29 02:46:48;;;;;;;17.08;12.13;;;;;;;;;;6328542;22;20886;-95
2021/07/29 02:49:15;;;;;;;14.43;11.80;;;;;;;;;;6327926;22;20363;-94
2021/07/29 02:51:42;;;;;;;13.88;12.02;;;;;;;;;;6328988;22;20382;-93
2021/07/29 02:54:09;;;;;;;15.48;12.00;;;;;;;;;;6328254;22;20374;-94
2021/07/29 02:56:35;;;;;;;13.95;11.40;;;;;;;;;;6328669;22;20363;-94
2021/07/29 02:59:02;;;;;;;17.67;12.30;;;;;;;;;;6328948;22;20367;-95
2021/07/29 03:01:29;;;;;;;12.98;11.10;;;;;;;;;;6328844;22;20426;-94
2021/07/29 03:03:58;;;;;;;12.48;10.85;;;;;;;;;;6330981;22;20369;-93
2021/07/29 03:06:24;;;;;;;14.18;11.65;;;;;;;;;;6331951;22;20369;-95
2021/07/29 03:08:52;;;;;;;15.77;12.07;;;;;;;;;;6354124;22;20361;-94
2021/07/29 03:11:19;;;;;;;15.32;13.07;;;;;;;;;;6356780;22;20517;-92
2021/07/29 03:13:46;;;;;;;15.43;12.63;;;;;;;;;;6356819;22;20359;-95
2021/07/29 03:16:13;;;;;;;16.20;11.80;;;;;;;;;;6356309;22;20419;-94
2021/07/29 03:18:39;;;;;;;14.95;12.57;;;;;;;;;;6357388;22;20359;-93
2021/07/29 03:21:08;;;;;;;14.05;12.02;;;;;;;;;;6354413;22;20426;-94
2021/07/29 03:23:35;;;;;;;13.95;11.70;;;;;;;;;;6357425;22;20347;-95
2021/07/29 03:26:03;;;;;;;13.63;11.40;;;;;;;;;;6356505;22;20363;-95
2021/07/29 03:28:30;;;;;;;13.63;12.10;;;;;;;;;;6357421;22;20389;-94
2021/07/29 03:30:58;;;;;;;17.95;12.40;;;;;;;;;;6357580;22;20367;-95
2021/07/29 03:33:25;;;;;;;14.38;12.00;;;;;;;;;;6357364;22;20351;-95
2021/07/29 03:35:52;;;;;;;14.13;11.77;;;;;;;;;;6353513;22;20366;-93
2021/07/29 03:38:20;;;;;;;15.33;11.30;;;;;;;;;;6342326;22;20665;-94
2021/07/29 03:40:48;;;;;;;14.82;11.30;;;;;;;;;;6342248;22;20375;-95
2021/07/29 03:43:15;;;;;;;13.33;11.37;;;;;;;;;;6342170;22;20366;-95
2021/07/29 03:45:44;;;;;;;14.50;11.00;;;;;;;;;;6344019;22;20378;-94
2021/07/29 03:48:12;;;;;;;15.73;12.60;;;;;;;;;;6343178;22;20367;-94
2021/07/29 03:50:41;;;;;;;14.63;11.13;;;;;;;;;;6337230;22;21079;-96
2021/07/29 03:53:08;;;;;;;14.48;11.57;;;;;;;;;;6330160;22;20375;-94
2021/07/29 03:55:38;;;;;;;13.77;11.23;;;;;;;;;;6328389;22;20374;-94
2021/07/29 03:58:04;;;;;;;12.40;11.20;;;;;;;;;;6328037;22;20843;-95
2021/07/29 04:00:32;;;;;;;13.77;11.55;;;;;;;;;;6328112;22;20382;-94
2021/07/29 04:02:59;;;;;;;12.87;11.53;;;;;;;;;;6327613;22;20351;-94
2021/07/29 04:05:26;;;;;;;13.98;11.18;;;;;;;;;;6331050;22;20365;-94
2021/07/29 04:07:54;;;;;;;14.30;11.63;;;;;;;;;;6332361;22;20675;-96
2021/07/29 04:10:21;;;;;;;16.60;11.73;;;;;;;;;;6350317;22;20391;-96
2021/07/29 04:12:50;;;;;;;14.23;11.20;;;;;;;;;;6350049;22;20456;-95
2021/07/29 04:15:17;;;;;;;13.47;10.60;;;;;;;;;;6350313;22;20443;-95
2021/07/29 04:17:44;;;;;;;14.68;11.10;;;;;;;;;;6350955;22;20366;-96
2021/07/29 04:20:16;;;;;;;14.02;11.07;;;;;;;;;;6349766;22;20374;-96
2021/07/29 04:22:47;;;;;;;12.95;11.45;;;;;;;;;;6348938;22;20363;-95
2021/07/29 04:25:20;;;;;;;14.65;11.52;;;;;;;;;;6351054;22;20366;-96
2021/07/29 04:27:58;;;;;;;13.70;11.43;;;;;;;;;;6351690;22;20375;-96
2021/07/29 04:30:37;;;;;;;15.63;11.93;;;;;;;;;;6354599;22;20362;-96
2021/07/29 04:33:12;;;;;;;14.70;11.88;;;;;;;;;;6355662;22;20375;-96
2021/07/29 04:38:45;;;;;;;18.92;16.17;;;;;;;;;;6357436;22;20352;-95
2021/07/29 04:41:35;;;;;;;16.63;14.68;;;;;;;;;;6358875;22;20459;-95
2021/07/29 05:02:45;;;;;;;14.30;12.80;;;;;;;;;;6357822;22;20376;-95
2021/07/29 05:08:46;;;;;;;20.52;15.57;;;;;;;;;;6334274;22;20367;-95
2021/07/29 05:17:19;;;;;;;21.15;16.00;;;;;;;;;;6292524;22;20422;-95
2021/07/29 05:19:50;;;;;;;21.13;15.98;;;;;;;;;;6288874;22;20422;-96
2021/07/29 05:22:17;;;;;;;21.07;15.87;;;;;;;;;;6277490;22;20521;-96
2021/07/29 05:24:46;;;;;;;20.13;15.57;;;;;;;;;;6298160;22;20370;-95
2021/07/29 05:27:13;;;;;;;17.98;16.10;;;;;;;;;;6295842;22;20358;-95
2021/07/29 05:29:40;;;;;;;18.02;15.93;;;;;;;;;;6291958;22;20393;-96
2021/07/29 05:32:09;;;;;;;18.90;16.25;;;;;;;;;;6289629;22;20357;-96
2021/07/29 05:34:36;;;;;;;18.30;15.50;;;;;;;;;;6276611;22;20406;-96
2021/07/29 05:37:04;;;;;;;18.17;15.20;;;;;;;;;;6269103;22;20377;-96
2021/07/29 05:39:33;;;;;;;23.27;14.50;;;;;;;;;;6268336;22;20951;-95
2021/07/29 05:42:03;;;;;;;15.97;14.27;;;;;;;;;;6270643;22;20385;-95
2021/07/29 05:44:30;;;;;;;16.27;13.63;;;;;;;;;;6272031;22;20375;-96
2021/07/29 05:46:57;;;;;;;17.88;14.13;;;;;;;;;;6270346;22;20922;-95
2021/07/29 05:49:25;;;;;;;16.38;12.82;;;;;;;;;;6269019;22;20373;-96
2021/07/29 05:51:52;;;;;;;15.60;13.65;;;;;;;;;;6269386;22;20505;-96
2021/07/29 05:54:19;;;;;;;17.80;12.88;;;;;;;;;;6269341;22;20381;-95
2021/07/29 05:56:48;;;;;;;16.35;12.70;;;;;;;;;;6269515;22;20402;-96
2021/07/29 05:59:16;;;;;;;14.05;12.65;;;;;;;;;;6269620;22;20453;-96
2021/07/29 06:01:44;;;;;;;17.10;12.80;;;;;;;;;;6270449;22;20384;-96
2021/07/29 06:04:11;;;;;;;13.57;12.13;;;;;;;;;;6291752;22;20370;-95
2021/07/29 06:06:39;;;;;;;15.37;12.37;;;;;;;;;;6273010;22;20370;-94
2021/07/29 06:09:06;;;;;;;16.60;12.38;;;;;;;;;;6295499;22;20371;-96
2021/07/29 06:11:33;;;;;;;14.90;12.00;;;;;;;;;;6334775;22;20687;-96
2021/07/29 06:14:01;;;;;;;13.80;11.60;;;;;;;;;;6333711;22;20355;-95
2021/07/29 06:16:30;;;;;;;13.20;10.38;;;;;;;;;;6329801;22;20378;-95
2021/07/29 06:19:05;;;;;;;11.98;10.45;;;;;;;;;;6329250;22;20359;-94
2021/07/29 06:21:32;;;;;;;14.45;10.70;;;;;;;;;;6330343;22;20379;-94
2021/07/29 06:23:59;;;;;;;15.40;9.65;;;;;;;;;;6330623;22;20370;-94
2021/07/29 06:26:26;;;;;;;12.05;9.32;;;;;;;;;;6330756;22;20367;-94
2021/07/29 06:28:53;;;;;;;14.38;10.30;;;;;;;;;;6331267;22;20846;-94
2021/07/29 06:31:20;;;;;;;13.27;8.67;;;;;;;;;;6331267;22;20362;-95
2021/07/29 06:33:49;;;;;;;9.00;7.47;;;;;;;;;;6331210;22;20362;-95
2021/07/29 06:36:17;;;;;;;8.82;6.93;;;;;;;;;;6328220;22;20374;-94
2021/07/29 06:38:44;;;;;;;8.88;6.80;;;;;;;;;;6330722;22;20363;-93
2021/07/29 06:41:11;;;;;;;9.00;7.22;;;;;;;;;;6329354;22;20367;-94
2021/07/29 06:43:38;;;;;;;11.07;7.75;;;;;;;;;;6330669;22;20445;-91
2021/07/29 06:46:05;;;;;;;10.43;7.40;;;;;;;;;;6322952;22;20480;-75
2021/07/29 06:48:32;;;;;;;11.10;8.10;;;;;;;;;;6325393;22;20355;-75
2021/07/29 06:51:04;;;;;;;12.07;8.05;;;;;;;;;;6325825;22;20351;-74
2021/07/29 06:53:31;;;;;;;11.40;8.40;;;;;;;;;;6326481;22;20430;-74
2021/07/29 06:55:59;;;;;;;13.10;9.15;;;;;;;;;;6324124;22;20355;-75
2021/07/29 06:58:26;;;;;;;12.75;9.32;;;;;;;;;;6325225;22;20395;-76
2021/07/29 07:00:53;;;;;;;12.20;9.45;;;;;;;;;;6324536;22;20737;-75
2021/07/29 07:03:19;;;;;;;11.82;8.80;;;;;;;;;;6324983;22;20416;-75
2021/07/29 07:05:46;;;;;;;9.30;7.40;;;;;;;;;;6324739;22;20412;-75
2021/07/29 07:08:15;;;;;;;10.00;7.38;;;;;;;;;;6323518;22;20343;-76
2021/07/29 07:10:42;;;;;;;8.10;6.33;;;;;;;;;;6324665;22;20434;-76
2021/07/29 07:13:09;;;;;;;8.05;6.22;;;;;;;;;;6322906;22;20827;-76
2021/07/29 07:15:36;;;;;;;8.30;6.23;;;;;;;;;;6325515;22;20355;-76
2021/07/29 07:18:03;;;;;;;8.45;6.65;;;;;;;;;;6320203;22;20347;-76
2021/07/29 07:20:29;;;;;;;8.73;6.80;;;;;;;;;;6320633;22;20351;-76
2021/07/29 07:22:56;;;;;;;9.05;7.05;;;;;;;;;;6322744;22;20382;-76
2021/07/29 07:25:24;;;;;;;8.50;6.00;;;;;;;;;;6321459;22;20361;-76
2021/07/29 07:27:51;;;;;;;9.98;6.47;;;;;;;;;;6323045;22;20355;-75
2021/07/29 07:30:18;;;;;;;8.60;6.43;;;;;;;;;;6323385;22;20358;-76
2021/07/29 07:32:45;;;;;;;8.80;6.50;;;;;;;;;;6324796;22;20365;-75
2021/07/29 07:35:12;;;;;;;9.57;6.47;;;;;;;;;;6325193;22;20827;-76
2021/07/29 07:37:42;;;;;;;8.75;6.50;;;;;;;;;;6326048;22;20359;-76
2021/07/29 07:40:10;;;;;;;10.43;6.45;;;;;;;;;;6324875;22;20434;-75
2021/07/29 07:42:38;;;;;;;7.38;6.40;;;;;;;;;;6325847;22;20375;-76
2021/07/29 07:45:06;;;;;;;6.97;5.70;;;;;;;;;;6324505;22;20845;-75
2021/07/29 07:47:35;;;;;;;8.43;5.75;;;;;;;;;;6323457;22;20362;-76
2021/07/29 07:50:02;;;;;;;6.55;5.85;;;;;;;;;;6325330;22;20415;-76
2021/07/29 07:52:29;;;;;;;10.25;6.22;;;;;;;;;;6329243;22;20355;-93
2021/07/29 07:54:57;;;;;;;9.18;6.18;;;;;;;;;;6329672;22;20351;-92
2021/07/29 07:57:24;;;;;;;9.37;5.87;;;;;;;;;;6330205;22;20472;-93
2021/07/29 07:59:58;;;;;;;10.18;5.95;;;;;;;;;;6329847;22;20375;-93
2021/07/29 08:02:24;;;;;;;10.48;6.40;;;;;;;;;;6328975;22;20425;-92
2021/07/29 08:04:51;;;;;;;7.97;5.68;;;;;;;;;;6328232;22;20358;-94
2021/07/29 08:07:18;;;;;;;8.45;5.68;;;;;;;;;;6330273;22;20888;-94
2021/07/29 08:09:45;;;;;;;6.90;5.90;;;;;;;;;;6329360;22;20371;-93
2021/07/29 08:12:12;;;;;;;9.52;6.13;;;;;;;;;;6325679;22;20355;-93
2021/07/29 08:14:39;;;;;;;7.43;5.50;;;;;;;;;;6321903;22;20424;-93
2021/07/29 08:17:07;;;;;;;6.90;5.63;;;;;;;;;;6322876;22;20383;-93
2021/07/29 08:19:35;;;;;;;6.90;5.18;;;;;;;;;;6324495;22;20385;-93
2021/07/29 08:22:02;;;;;;;8.05;5.53;;;;;;;;;;6323716;22;20383;-93
2021/07/29 08:24:29;;;;;;;9.02;5.45;;;;;;;;;;6325423;22;20366;-92
2021/07/29 08:26:57;;;;;;;7.28;5.13;;;;;;;;;;6324535;22;20351;-94
2021/07/29 08:29:24;;;;;;;7.20;5.20;;;;;;;;;;6324406;22;20457;-93
2021/07/29 08:31:51;;;;;;;7.50;5.05;;;;;;;;;;6326069;22;20835;-94
2021/07/29 08:34:19;;;;;;;7.85;4.95;;;;;;;;;;6326564;22;20859;-94
2021/07/29 08:36:47;;;;;;;6.70;4.70;;;;;;;;;;6326419;22;20367;-93
2021/07/29 08:39:14;;;;;;;7.22;5.30;;;;;;;;;;6325125;22;20355;-94
2021/07/29 08:41:42;;;;;;;7.53;5.15;;;;;;;;;;6323668;22;20393;-95
2021/07/29 08:44:09;;;;;;;7.67;5.30;;;;;;;;;;6323484;22;20394;-93
2021/07/29 08:46:39;;;;;;;7.47;5.35;;;;;;;;;;6325498;22;20359;-93
2021/07/29 08:49:05;;;;;;;10.63;5.60;;;;;;;;;;6296870;22;20423;-93
2021/07/29 08:51:34;;;;;;;7.85;5.40;;;;;;;;;;6323223;22;20351;-93
2021/07/29 08:54:07;;;;;;;8.57;5.60;;;;;;;;;;6324590;22;20359;-93
2021/07/29 08:56:34;;;;;;;9.15;6.05;;;;;;;;;;6321853;22;20371;-93
2021/07/29 08:59:01;;;;;;;8.77;5.82;;;;;;;;;;6323856;22;20363;-93
2021/07/29 09:01:42;;;;;;;9.90;6.28;;;;;;;;;;6324047;22;20370;-93
2021/07/29 09:04:12;;;;;;;7.43;6.18;;;;;;;;;;6324372;22;20431;-93
2021/07/29 09:06:57;;;;;;;8.63;6.60;;;;;;;;;;6325246;22;20389;-95
2021/07/29 09:09:42;;;;;;;8.27;5.88;;;;;;;;;;6324120;22;20371;-94
2021/07/29 09:12:15;;;;;;;9.70;6.37;;;;;;;;;;6323599;22;20707;-94
2021/07/29 09:14:42;;;;;;;8.05;6.13;;;;;;;;;;6323827;22;20367;-94
2021/07/29 09:17:10;;;;;;;7.35;5.97;;;;;;;;;;6325210;22;20367;-95
2021/07/29 09:19:38;;;;;;;8.57;6.00;;;;;;;;;;6324608;22;20367;-94
2021/07/29 09:22:23;;;;;;;7.90;5.93;;;;;;;;;;6325609;22;20382;-92
2021/07/29 09:25:05;;;;;;;9.50;6.53;;;;;;;;;;6325527;22;20351;-93
2021/07/29 09:27:46;;;;;;;8.37;6.07;;;;;;;;;;6324350;22;20366;-93
2021/07/29 09:30:22;;;;;;;8.40;6.03;;;;;;;;;;6324604;22;20356;-92
2021/07/29 09:32:54;;;;;;;9.85;6.10;;;;;;;;;;6324765;22;20382;-94
2021/07/29 09:35:32;;;;;;;7.30;5.70;;;;;;;;;;6325092;22;20367;-93
2021/07/29 09:38:01;;;;;;;8.57;5.70;;;;;;;;;;6325849;22;20359;-93
2021/07/29 09:40:28;;;;;;;8.25;5.32;;;;;;;;;;6324755;22;20363;-93
2021/07/29 09:43:09;;;;;;;7.80;5.20;;;;;;;;;;6325591;22;20379;-93
2021/07/29 09:45:36;;;;;;;6.90;5.20;;;;;;;;;;6325109;22;20411;-94
2021/07/29 09:48:07;;;;;;;9.15;5.63;;;;;;;;;;6325739;22;20355;-93
2021/07/29 09:50:34;;;;;;;9.45;5.55;;;;;;;;;;6324753;22;20360;-93
2021/07/29 09:53:03;;;;;;;12.37;5.83;;;;;;;;;;6325568;22;20651;-94
2021/07/29 09:55:31;;;;;;;7.90;5.50;;;;;;;;;;6328910;22;20374;-96
2021/07/29 09:58:03;;;;;;;9.35;5.65;;;;;;;;;;6340334;22;20442;-96
2021/07/29 10:00:37;;;;;;;8.77;5.75;;;;;;;;;;6342604;22;20367;-96
2021/07/29 10:03:12;;;;;;;8.05;5.97;;;;;;;;;;6337744;22;20382;-96
2021/07/29 10:05:45;;;;;;;8.25;5.55;;;;;;;;;;6334868;22;20393;-96
2021/07/29 10:08:23;;;;;;;7.18;5.65;;;;;;;;;;6335508;22;20412;-96
2021/07/29 10:10:57;;;;;;;7.78;5.60;;;;;;;;;;6336675;22;20369;-96
2021/07/29 10:13:43;;;;;;;8.98;5.70;;;;;;;;;;6310207;22;20364;-96
2021/07/29 10:16:16;;;;;;;7.85;6.00;;;;;;;;;;6334793;22;20394;-96
2021/07/29 10:19:06;;;;;;;7.55;5.50;;;;;;;;;;6327105;22;20462;-96
2021/07/29 10:21:38;;;;;;;9.43;6.13;;;;;;;;;;6329710;22;20674;-96
2021/07/29 10:24:10;;;;;;;8.77;5.93;;;;;;;;;;6329878;22;20370;-96
2021/07/29 10:27:08;;;;;;;8.67;5.80;;;;;;;;;;6328457;22;20378;-96
2021/07/29 10:29:37;;;;;;;7.80;5.65;;;;;;;;;;6328908;22;20870;-95
2021/07/29 10:32:09;;;;;;;8.70;6.43;;;;;;;;;;6327024;22;20455;-96
2021/07/29 10:34:37;;;;;;;9.10;6.07;;;;;;;;;;6328278;22;20874;-96
2021/07/29 10:37:05;;;;;;;6.43;5.70;;;;;;;;;;6326769;22;20363;-96
2021/07/29 10:40:00;;;;;;;9.50;5.80;;;;;;;;;;6327368;22;20423;-96
2021/07/29 10:42:29;;;;;;;8.25;6.07;;;;;;;;;;6328090;22;20410;-96
2021/07/29 10:44:56;;;;;;;8.90;6.38;;;;;;;;;;6327035;22;20454;-96
2021/07/29 10:47:39;;;;;;;10.70;6.35;;;;;;;;;;6326504;22;20985;-96
2021/07/29 10:50:13;;;;;;;8.82;5.93;;;;;;;;;;6326593;22;20889;-96
2021/07/29 10:52:40;;;;;;;9.07;6.10;;;;;;;;;;6327609;22;20367;-96
2021/07/29 10:55:11;;;;;;;8.43;5.83;;;;;;;;;;6327774;22;20413;-96
2021/07/29 10:57:39;;;;;;;8.60;5.97;;;;;;;;;;6327453;22;20377;-96
2021/07/29 11:00:09;;;;;;;7.95;6.57;;;;;;;;;;6327216;22;20451;-96
2021/07/29 11:02:51;;;;;;;8.38;6.78;;;;;;;;;;6340422;22;20377;-96
2021/07/29 11:05:26;;;;;;;10.80;6.55;;;;;;;;;;6348998;22;20355;-96
2021/07/29 11:07:53;;;;;;;9.52;6.75;;;;;;;;;;6354818;22;20359;-96
2021/07/29 11:10:29;;;;;;;9.55;6.20;;;;;;;;;;6352073;22;20642;-96
2021/07/29 11:12:58;;;;;;;8.38;6.13;;;;;;;;;;6347557;22;20402;-96
2021/07/29 11:15:27;;;;;;;10.33;7.03;;;;;;;;;;6342002;22;20391;-96
2021/07/29 11:17:55;;;;;;;8.05;6.40;;;;;;;;;;6338324;22;20362;-96
2021/07/29 11:20:29;;;;;;;10.40;6.70;;;;;;;;;;6337435;22;20419;-96
2021/07/29 11:23:00;;;;;;;10.32;6.80;;;;;;;;;;6332323;22;20437;-96
2021/07/29 11:25:31;;;;;;;8.80;6.17;;;;;;;;;;6330980;22;20397;-96
2021/07/29 11:28:13;;;;;;;10.13;6.72;;;;;;;;;;6327675;22;20462;-96
2021/07/29 11:30:44;;;;;;;8.32;6.50;;;;;;;;;;6329208;22;20996;-96
2021/07/29 11:33:22;;;;;;;9.43;6.93;;;;;;;;;;6330174;22;20424;-96
2021/07/29 11:35:50;;;;;;;9.60;7.10;;;;;;;;;;6310334;22;20481;-96
2021/07/29 11:38:21;;;;;;;8.43;7.03;;;;;;;;;;6335631;22;20438;-96
2021/07/29 11:41:03;;;;;;;11.13;7.20;;;;;;;;;;6337469;22;20367;-95
2021/07/29 11:43:41;;;;;;;10.82;6.80;;;;;;;;;;6337495;22;20389;-96
2021/07/29 11:46:09;;;;;;;8.70;6.60;;;;;;;;;;6336860;22;20359;-96
2021/07/29 11:48:39;;;;;;;7.67;6.20;;;;;;;;;;6335542;22;20457;-96
2021/07/29 11:51:18;;;;;;;9.05;6.40;;;;;;;;;;6333271;22;20378;-96
2021/07/29 11:53:47;;;;;;;8.60;6.03;;;;;;;;;;6334584;22;20778;-95
2021/07/29 11:56:52;;;;;;;8.87;6.20;;;;;;;;;;6354033;22;20386;-96
2021/07/29 12:02:31;;;;;;;7.63;6.30;;;;;;;;;;6327387;22;20418;-94
2021/07/29 12:04:58;;;;;;;8.10;5.97;;;;;;;;;;6322675;22;20420;-93
2021/07/29 12:07:25;;;;;;;9.25;6.32;;;;;;;;;;6328080;22;20392;-92
2021/07/29 12:09:52;;;;;;;10.15;6.10;;;;;;;;;;6327440;22;20494;-92
2021/07/29 12:12:21;;;;;;;9.32;6.20;;;;;;;;;;6324272;22;20369;-92
2021/07/29 12:14:48;;;;;;;8.45;6.10;;;;;;;;;;6326717;22;20359;-92
2021/07/29 12:17:20;;;;;;;10.05;5.93;;;;;;;;;;6327582;22;20370;-90
2021/07/29 12:19:57;;;;;;;8.85;5.95;;;;;;;;;;6325941;22;20801;-91
2021/07/29 12:22:25;;;;;;;7.43;5.90;;;;;;;;;;6326323;22;20412;-92
2021/07/29 12:24:53;;;;;;;10.32;6.45;;;;;;;;;;6327366;22;20374;-92
2021/07/29 12:27:22;;;;;;;8.30;6.18;;;;;;;;;;6328484;22;20377;-92
2021/07/29 12:29:49;;;;;;;7.33;6.20;;;;;;;;;;6328603;22;20382;-93
2021/07/29 12:32:24;;;;;;;10.40;6.05;;;;;;;;;;6327285;22;20847;-92
2021/07/29 12:34:52;;;;;;;7.00;5.83;;;;;;;;;;6326924;22;20359;-93
2021/07/29 12:37:33;;;;;;;7.90;5.90;;;;;;;;;;6328174;22;20367;-91
2021/07/29 12:40:01;;;;;;;9.37;6.20;;;;;;;;;;6329648;22;20691;-93
2021/07/29 12:42:31;;;;;;;8.02;5.90;;;;;;;;;;6329647;22;20354;-93
2021/07/29 12:44:59;;;;;;;7.82;6.15;;;;;;;;;;6326067;22;20369;-93
2021/07/29 12:47:27;;;;;;;9.57;6.00;;;;;;;;;;6299991;22;20733;-93
2021/07/29 12:49:54;;;;;;;10.40;6.00;;;;;;;;;;6328100;22;20366;-93
2021/07/29 12:52:22;;;;;;;8.25;6.00;;;;;;;;;;6328163;22;20393;-94
2021/07/29 12:55:06;;;;;;;8.52;6.00;;;;;;;;;;6327189;22;20370;-92
2021/07/29 12:57:50;;;;;;;10.20;6.15;;;;;;;;;;6328005;22;20371;-92
2021/07/29 13:00:17;;;;;;;9.07;6.00;;;;;;;;;;6327955;22;20366;-92
2021/07/29 13:02:45;;;;;;;9.48;6.13;;;;;;;;;;6325928;22;20371;-94
2021/07/29 13:05:12;;;;;;;8.65;6.18;;;;;;;;;;6327878;22;20367;-93
2021/07/29 13:07:39;;;;;;;9.60;5.97;;;;;;;;;;6298467;22;20355;-92
2021/07/29 13:10:07;;;;;;;6.40;5.72;;;;;;;;;;6325970;22;20364;-93
2021/07/29 13:12:37;;;;;;;7.63;6.13;;;;;;;;;;6297870;22;20351;-90
2021/07/29 13:15:05;;;;;;;9.40;6.13;;;;;;;;;;6324277;22;20438;-90
2021/07/29 13:17:33;;;;;;;7.00;6.05;;;;;;;;;;6321687;22;20366;-91
2021/07/29 13:20:01;;;;;;;9.70;6.43;;;;;;;;;;6324575;22;20736;-90
2021/07/29 13:22:28;;;;;;;7.95;6.18;;;;;;;;;;6295953;22;20360;-90
2021/07/29 13:24:57;;;;;;;8.30;6.20;;;;;;;;;;6323754;22;20363;-90
2021/07/29 13:27:24;;;;;;;10.07;7.63;;;;;;;;;;6323948;22;20351;-92
2021/07/29 13:29:52;;;;;;;8.82;6.32;;;;;;;;;;6324169;22;20719;-91
2021/07/29 13:32:19;;;;;;;9.05;6.40;;;;;;;;;;6323189;22;20424;-89
2021/07/29 13:34:46;;;;;;;7.65;6.07;;;;;;;;;;6323929;22;20603;-89
2021/07/29 13:37:13;;;;;;;9.32;6.38;;;;;;;;;;6322821;22;20366;-92
2021/07/29 13:39:41;;;;;;;7.88;6.40;;;;;;;;;;6326370;22;20420;-92
2021/07/29 13:42:09;;;;;;;12.80;6.40;;;;;;;;;;6328603;22;20370;-92
2021/07/29 13:44:42;;;;;;;8.90;6.22;;;;;;;;;;6326603;22;20749;-92
2021/07/29 13:47:10;;;;;;;8.57;5.95;;;;;;;;;;6325141;22;20371;-91
2021/07/29 13:49:37;;;;;;;7.53;6.18;;;;;;;;;;6326951;22;20374;-92
2021/07/29 13:52:07;;;;;;;11.80;6.60;;;;;;;;;;6326042;22;20668;-93
2021/07/29 13:59:36;;;;;;;9.23;7.00;;;;;;;;;;6262905;22;20407;-91
2021/07/29 14:02:04;;;;;;;9.38;6.63;;;;;;;;;;6263276;22;20359;-93
2021/07/29 14:04:32;;;;;;;7.70;6.25;;;;;;;;;;6265213;22;20393;-94
2021/07/29 14:06:59;;;;;;;9.50;6.43;;;;;;;;;;6265474;22;20377;-94
2021/07/29 14:09:26;;;;;;;11.70;6.72;;;;;;;;;;6265430;22;20445;-93
2021/07/29 14:11:53;;;;;;;7.47;6.37;;;;;;;;;;6266424;22;20393;-93
2021/07/29 14:14:20;;;;;;;8.85;6.50;;;;;;;;;;6266412;22;20368;-92
2021/07/29 14:16:47;;;;;;;9.82;6.75;;;;;;;;;;6266550;22;20389;-94
2021/07/29 14:19:16;;;;;;;9.53;6.50;;;;;;;;;;6265943;22;20381;-94
2021/07/29 14:24:44;;;;;;;10.50;6.82;;;;;;;;;;6143828;23;20452;-94
2021/07/29 14:27:11;;;;;;;10.20;7.13;;;;;;;;;;6142289;23;20882;-94
2021/07/29 14:29:38;;;;;;;10.60;6.88;;;;;;;;;;6197028;22;20377;-95
2021/07/29 14:32:06;;;;;;;10.25;7.03;;;;;;;;;;6264375;22;20366;-95
2021/07/29 14:34:33;;;;;;;9.88;6.63;;;;;;;;;;6264674;22;20378;-94
2021/07/29 14:37:01;;;;;;;9.48;6.40;;;;;;;;;;6262873;22;20728;-95
2021/07/29 14:39:29;;;;;;;7.15;6.40;;;;;;;;;;6262579;22;20370;-94
2021/07/29 14:44:48;;;;;;;9.50;6.32;;;;;;;;;;6280663;22;20382;-95
2021/07/29 14:50:04;;;;;;;9.32;6.32;;;;;;;;;;6273114;22;20857;-96
2021/07/29 14:52:39;;;;;;;8.82;6.43;;;;;;;;;;6270299;22;20382;-96
2021/07/29 14:55:10;;;;;;;10.45;6.80;;;;;;;;;;6241854;22;20367;-96
2021/07/29 14:58:18;;;;;;;8.38;6.30;;;;;;;;;;6276856;22;20390;-96
2021/07/29 16:34:33;;;;;;;8.25;6.28;;;;;;;;;;6260119;22;20386;-95
2021/07/29 16:40:15;;;;;;;8.33;6.40;;;;;;;;;;6233725;23;20437;-94
2021/07/29 16:42:46;;;;;;;10.30;6.68;;;;;;;;;;6259584;22;20364;-96
2021/07/29 16:45:26;;;;;;;8.77;6.40;;;;;;;;;;6249683;23;20403;-96
2021/07/29 16:48:23;;;;;;;7.67;6.53;;;;;;;;;;6259992;22;20371;-96
2021/07/29 16:56:26;;;;;;;9.77;6.60;;;;;;;;;;6295207;22;20369;-95
2021/07/29 16:58:54;;;;;;;7.95;6.68;;;;;;;;;;6326532;22;20415;-96
2021/07/29 17:01:21;;;;;;;9.60;6.40;;;;;;;;;;6326341;22;20381;-96
2021/07/29 17:03:49;;;;;;;9.38;6.60;;;;;;;;;;6299303;22;20426;-95
2021/07/29 17:06:17;;;;;;;7.43;6.35;;;;;;;;;;6301234;22;20368;-95
2021/07/29 17:08:49;;;;;;;10.15;6.50;;;;;;;;;;6301091;22;20353;-96
2021/07/29 17:11:16;;;;;;;10.45;6.60;;;;;;;;;;6304166;22;20383;-95
2021/07/29 17:13:45;;;;;;;8.70;6.50;;;;;;;;;;6307107;22;20391;-94
2021/07/29 17:16:12;;;;;;;7.50;6.18;;;;;;;;;;6301128;22;20380;-95